Time,TemperatureF,DewpointF,PressureIn,WindDirection,WindDirectionDegrees,WindSpeedMPH,WindSpeedGustMPH,Humidity,HourlyPrecipIn,Conditions,Clouds,dailyrainin,SoftwareType,DateUTC
2013-01-04 00:00:00,34.8,21.5,30.26,West,270,3.0,9.0,58,0.00,,---,0.00,VWS V13.01,2013-01-04 05:00:00,
2013-01-04 00:30:00,34.4,21.6,30.26,WNW,292,2.0,9.0,59,0.00,,---,0.00,VWS V13.01,2013-01-04 05:30:00,
2013-01-04 01:00:00,34.4,22.0,30.26,West,270,3.0,9.0,60,0.00,,---,0.00,VWS V13.01,2013-01-04 06:00:00,
2013-01-04 01:30:00,34.4,22.7,30.25,West,270,4.0,13.0,62,0.00,,---,0.00,VWS V13.01,2013-01-04 06:30:00,
2013-01-04 02:30:00,34.6,22.2,30.26,WNW,292,8.0,17.0,60,0.00,,---,0.00,VWS V13.01,2013-01-04 07:30:00,
2013-01-04 03:30:00,34.1,21.3,30.28,West,270,9.0,22.0,59,0.00,,---,0.00,VWS V13.01,2013-01-04 08:30:00,
2013-01-04 04:00:00,33.3,20.9,30.29,WNW,292,7.0,18.0,60,0.00,,---,0.00,VWS V13.01,2013-01-04 09:00:00,
2013-01-04 04:30:00,33.5,20.7,30.30,West,270,9.0,21.0,59,0.00,,---,0.00,VWS V13.01,2013-01-04 09:30:00,
2013-01-04 05:00:00,32.3,20.4,30.30,West,270,4.0,13.0,61,0.00,,---,0.00,VWS V13.01,2013-01-04 10:00:00,
2013-01-04 05:30:00,32.1,20.2,30.29,WNW,292,7.0,15.0,61,0.00,,---,0.00,VWS V13.01,2013-01-04 10:30:00,
2013-01-04 06:00:00,31.5,20.0,30.29,NW,315,8.0,19.0,62,0.00,,---,0.00,VWS V13.01,2013-01-04 11:00:00,
2013-01-04 06:30:00,31.0,19.5,30.29,NW,315,8.0,23.0,62,0.00,,---,0.00,VWS V13.01,2013-01-04 11:30:00,
2013-01-04 07:00:00,30.7,19.6,30.29,NW,315,7.0,20.0,63,0.00,,---,0.00,VWS V13.01,2013-01-04 12:00:00,
2013-01-04 07:30:00,30.6,19.5,30.30,WNW,292,7.0,18.0,63,0.00,,---,0.00,VWS V13.01,2013-01-04 12:30:00,
2013-01-04 07:58:00,29.3,19.7,30.31,West,270,4.0,10.0,67,0.00,,---,0.00,VWS V13.01,2013-01-04 12:58:00,
2013-01-04 08:03:00,29.8,20.2,30.31,WSW,242,10.0,14.0,67,0.00,,---,0.00,VWS V13.01,2013-01-04 13:03:00,
2013-01-04 08:08:00,29.9,19.9,30.31,WSW,253,7.0,14.0,66,0.00,,---,0.00,VWS V13.01,2013-01-04 13:08:00,
2013-01-04 08:13:00,30.1,20.1,30.31,West,260,5.0,19.0,66,0.00,,---,0.00,VWS V13.01,2013-01-04 13:13:00,
2013-01-04 08:18:00,30.2,19.9,30.31,WSW,252,5.0,19.0,65,0.00,,---,0.00,VWS V13.01,2013-01-04 13:18:00,
2013-01-04 08:23:00,30.3,20.0,30.30,West,264,9.0,19.0,65,0.00,,---,0.00,VWS V13.01,2013-01-04 13:23:00,
2013-01-04 08:28:00,30.5,20.1,30.31,West,279,4.0,19.0,65,0.00,,---,0.00,VWS V13.01,2013-01-04 13:28:00,
2013-01-04 08:33:00,30.7,20.3,30.30,WSW,254,6.0,13.0,65,0.00,,---,0.00,VWS V13.01,2013-01-04 13:33:00,
2013-01-04 08:38:00,30.8,20.1,30.30,West,268,9.0,13.0,64,0.00,,---,0.00,VWS V13.01,2013-01-04 13:38:00,
2013-01-04 08:43:00,31.0,20.3,30.30,WNW,286,13.0,13.0,64,0.00,,---,0.00,VWS V13.01,2013-01-04 13:43:00,
2013-01-04 08:48:00,31.2,20.1,30.30,WNW,295,12.0,13.0,63,0.00,,---,0.00,VWS V13.01,2013-01-04 13:48:00,
2013-01-04 08:53:00,31.4,20.3,30.29,West,261,6.0,15.0,63,0.00,,---,0.00,VWS V13.01,2013-01-04 13:53:00,
2013-01-04 08:58:00,31.6,20.1,30.29,West,263,6.0,15.0,62,0.00,,---,0.00,VWS V13.01,2013-01-04 13:58:00,
2013-01-04 09:03:00,31.8,20.3,30.29,WNW,298,10.0,13.0,62,0.00,,---,0.00,VWS V13.01,2013-01-04 14:03:00,
2013-01-04 09:08:00,32.1,20.2,30.29,West,265,4.0,13.0,61,0.00,,---,0.00,VWS V13.01,2013-01-04 14:08:00,
2013-01-04 09:13:00,32.5,20.6,30.30,NW,304,11.0,13.0,61,0.00,,---,0.00,VWS V13.01,2013-01-04 14:13:00,
2013-01-04 09:18:00,32.7,20.8,30.30,West,275,4.0,13.0,61,0.00,,---,0.00,VWS V13.01,2013-01-04 14:18:00,
2013-01-04 09:23:00,32.8,20.9,30.30,WNW,290,8.0,13.0,61,0.00,,---,0.00,VWS V13.01,2013-01-04 14:23:00,
2013-01-04 09:28:00,33.1,20.7,30.30,West,265,5.0,13.0,60,0.00,,---,0.00,VWS V13.01,2013-01-04 14:28:00,
2013-01-04 09:33:00,33.4,21.0,30.30,WNW,288,6.0,12.0,60,0.00,,---,0.00,VWS V13.01,2013-01-04 14:33:00,
2013-01-04 09:38:00,33.4,21.0,30.30,West,266,5.0,14.0,60,0.00,,---,0.00,VWS V13.01,2013-01-04 14:38:00,
2013-01-04 09:43:00,33.7,21.3,30.31,WNW,286,10.0,14.0,60,0.00,,---,0.00,VWS V13.01,2013-01-04 14:43:00,
2013-01-04 09:48:00,33.9,21.1,30.31,West,265,13.0,15.0,59,0.00,,---,0.00,VWS V13.01,2013-01-04 14:48:00,
2013-01-04 09:53:00,34.0,21.2,30.31,West,273,8.0,15.0,59,0.00,,---,0.00,VWS V13.01,2013-01-04 14:53:00,
2013-01-04 09:58:00,34.4,21.2,30.31,West,277,10.0,15.0,58,0.00,,---,0.00,VWS V13.01,2013-01-04 14:58:00,
2013-01-04 10:04:00,34.5,21.7,30.31,West,262,9.0,17.0,59,0.00,,---,0.00,VWS V13.01,2013-01-04 15:04:00,
2013-01-04 10:08:00,35.0,21.7,30.31,West,264,16.0,17.0,58,0.00,,---,0.00,VWS V13.01,2013-01-04 15:08:00,
2013-01-04 10:14:00,35.1,21.8,30.30,West,268,10.0,17.0,58,0.00,,---,0.00,VWS V13.01,2013-01-04 15:14:00,
2013-01-04 10:19:00,35.4,21.7,30.31,West,261,7.0,17.0,57,0.00,,---,0.00,VWS V13.01,2013-01-04 15:19:00,
2013-01-04 10:24:00,35.8,22.1,30.31,West,271,8.0,17.0,57,0.00,,---,0.00,VWS V13.01,2013-01-04 15:24:00,
2013-01-04 10:29:00,35.9,22.2,30.30,West,266,9.0,18.0,57,0.00,,---,0.00,VWS V13.01,2013-01-04 15:29:00,
2013-01-04 10:34:00,36.2,22.0,30.30,West,276,11.0,14.0,56,0.00,,---,0.00,VWS V13.01,2013-01-04 15:34:00,
2013-01-04 10:39:00,36.4,22.2,30.30,West,267,8.0,14.0,56,0.00,,---,0.00,VWS V13.01,2013-01-04 15:39:00,
2013-01-04 10:44:00,36.4,22.2,30.30,West,271,13.0,14.0,56,0.00,,---,0.00,VWS V13.01,2013-01-04 15:44:00,
2013-01-04 10:49:00,36.2,22.0,30.31,WSW,258,10.0,17.0,56,0.00,,---,0.00,VWS V13.01,2013-01-04 15:49:00,
2013-01-04 10:54:00,36.3,22.1,30.30,West,266,6.0,17.0,56,0.00,,---,0.00,VWS V13.01,2013-01-04 15:54:00,
2013-01-04 10:59:00,36.4,21.8,30.31,West,265,7.0,18.0,55,0.00,,---,0.00,VWS V13.01,2013-01-04 15:59:00,
2013-01-04 11:04:00,36.5,21.9,30.31,WNW,284,12.0,16.0,55,0.00,,---,0.00,VWS V13.01,2013-01-04 16:04:00,
2013-01-04 12:30:00,37.2,22.5,30.29,West,270,9.0,20.0,55,0.00,,---,0.00,VWS V13.01,2013-01-04 17:30:00,
2013-01-04 13:00:00,37.5,22.8,30.28,WSW,248,10.0,22.0,55,0.00,,---,0.00,VWS V13.01,2013-01-04 18:00:00,
2013-01-04 13:30:00,38.3,22.2,30.27,WSW,248,9.0,21.0,52,0.00,,---,0.00,VWS V13.01,2013-01-04 18:30:00,
2013-01-04 14:00:00,39.5,22.9,30.24,WSW,248,10.0,26.0,51,0.00,,---,0.00,VWS V13.01,2013-01-04 19:00:00,
2013-01-04 14:30:00,40.1,23.0,30.23,WSW,248,9.0,26.0,50,0.00,,---,0.00,VWS V13.01,2013-01-04 19:30:00,
2013-01-04 15:00:00,40.4,22.8,30.22,WSW,248,10.0,19.0,49,0.00,,---,0.00,VWS V13.01,2013-01-04 20:00:00,
2013-01-04 15:30:00,41.0,22.8,30.21,WSW,248,9.0,19.0,48,0.00,,---,0.00,VWS V13.01,2013-01-04 20:30:00,
2013-01-04 16:00:00,41.4,23.2,30.21,WSW,248,8.0,20.0,48,0.00,,---,0.00,VWS V13.01,2013-01-04 21:00:00,
2013-01-04 16:30:00,39.3,22.7,30.23,WSW,248,8.0,17.0,51,0.00,,---,0.00,VWS V13.01,2013-01-04 21:30:00,
2013-01-04 17:00:00,38.5,22.4,30.26,WSW,248,8.0,20.0,52,0.00,,---,0.00,VWS V13.01,2013-01-04 22:00:00,
2013-01-04 17:15:00,37.0,21.9,30.26,West,270,6.0,14.0,54,0.00,,---,0.00,VWS V13.01,2013-01-04 22:15:00,
2013-01-04 17:20:00,36.1,21.5,30.27,WSW,251,10.0,12.0,55,0.00,,---,0.00,VWS V13.01,2013-01-04 22:20:00,
2013-01-04 17:25:00,36.0,21.8,30.27,West,259,6.0,13.0,56,0.00,,---,0.00,VWS V13.01,2013-01-04 22:25:00,
2013-01-04 17:30:00,35.9,21.8,30.28,West,268,5.0,6.0,56,0.00,,---,0.00,VWS V13.01,2013-01-04 22:30:00,
2013-01-04 17:35:00,35.7,21.6,30.28,West,277,9.0,10.0,56,0.00,,---,0.00,VWS V13.01,2013-01-04 22:35:00,
2013-01-04 17:41:00,35.6,21.5,30.28,WSW,258,6.0,13.0,56,0.00,,---,0.00,VWS V13.01,2013-01-04 22:41:00,
2013-01-04 17:46:00,35.6,21.5,30.28,WSW,253,3.0,13.0,56,0.00,,---,0.00,VWS V13.01,2013-01-04 22:46:00,
2013-01-04 17:51:00,35.7,21.6,30.27,West,260,5.0,14.0,56,0.00,,---,0.00,VWS V13.01,2013-01-04 22:51:00,
2013-01-04 17:56:00,35.5,21.8,30.28,West,277,5.0,14.0,57,0.00,,---,0.00,VWS V13.01,2013-01-04 22:56:00,
2013-01-04 18:01:00,35.2,21.9,30.29,West,268,5.0,7.0,58,0.00,,---,0.00,VWS V13.01,2013-01-04 23:01:00,
2013-01-04 18:06:00,35.0,21.7,30.30,West,276,10.0,10.0,58,0.00,,---,0.00,VWS V13.01,2013-01-04 23:06:00,
2013-01-04 18:11:00,34.9,21.6,30.30,West,279,7.0,13.0,58,0.00,,---,0.00,VWS V13.01,2013-01-04 23:11:00,
2013-01-04 18:16:00,34.7,21.9,30.30,WSW,257,6.0,14.0,59,0.00,,---,0.00,VWS V13.01,2013-01-04 23:16:00,
2013-01-04 18:21:00,34.5,21.7,30.30,WSW,256,10.0,18.0,59,0.00,,---,0.00,VWS V13.01,2013-01-04 23:21:00,
2013-01-04 18:26:00,34.4,22.0,30.31,WNW,302,7.0,18.0,60,0.00,,---,0.00,VWS V13.01,2013-01-04 23:26:00,
2013-01-04 18:31:00,34.4,22.0,30.31,WNW,283,8.0,9.0,60,0.00,,---,0.00,VWS V13.01,2013-01-04 23:31:00,
2013-01-04 18:36:00,34.5,21.7,30.32,WSW,245,7.0,13.0,59,0.00,,---,0.00,VWS V13.01,2013-01-04 23:36:00,
2013-01-04 18:41:00,34.5,21.7,30.31,WNW,286,2.0,14.0,59,0.00,,---,0.00,VWS V13.01,2013-01-04 23:41:00,
2013-01-04 18:46:00,34.6,21.8,30.31,WNW,299,9.0,15.0,59,0.00,,---,0.00,VWS V13.01,2013-01-04 23:46:00,
2013-01-04 18:51:00,34.7,21.9,30.32,West,260,5.0,22.0,59,0.00,,---,0.00,VWS V13.01,2013-01-04 23:51:00,
2013-01-04 18:56:00,34.7,21.9,30.32,NW,315,4.0,22.0,59,0.00,,---,0.00,VWS V13.01,2013-01-04 23:56:00,
2013-01-04 19:01:00,34.6,21.8,30.33,WSW,252,7.0,12.0,59,0.00,,---,0.00,VWS V13.01,2013-01-05 00:01:00,
2013-01-04 19:06:00,34.9,21.6,30.32,WNW,303,4.0,19.0,58,0.00,,---,0.00,VWS V13.01,2013-01-05 00:06:00,
2013-01-04 19:11:00,34.8,21.5,30.32,WNW,283,7.0,19.0,58,0.00,,---,0.00,VWS V13.01,2013-01-05 00:11:00,
2013-01-04 19:16:00,34.9,21.6,30.33,West,272,10.0,19.0,58,0.00,,---,0.00,VWS V13.01,2013-01-05 00:16:00,
2013-01-04 19:21:00,34.8,21.5,30.33,NW,316,8.0,19.0,58,0.00,,---,0.00,VWS V13.01,2013-01-05 00:21:00,
2013-01-04 19:26:00,34.8,21.5,30.33,NW,304,13.0,19.0,58,0.00,,---,0.00,VWS V13.01,2013-01-05 00:26:00,
2013-01-04 19:31:00,34.9,21.6,30.34,West,281,12.0,13.0,58,0.00,,---,0.00,VWS V13.01,2013-01-05 00:31:00,
2013-01-04 19:36:00,35.0,21.7,30.34,WNW,287,4.0,16.0,58,0.00,,---,0.00,VWS V13.01,2013-01-05 00:36:00,
2013-01-04 19:41:00,35.0,21.7,30.35,WNW,303,11.0,16.0,58,0.00,,---,0.00,VWS V13.01,2013-01-05 00:41:00,
2013-01-04 19:46:00,35.1,21.8,30.35,West,277,12.0,16.0,58,0.00,,---,0.00,VWS V13.01,2013-01-05 00:46:00,
2013-01-04 19:51:00,35.1,21.8,30.35,West,263,15.0,18.0,58,0.00,,---,0.00,VWS V13.01,2013-01-05 00:51:00,
2013-01-04 19:56:00,35.1,21.8,30.34,SW,234,15.0,21.0,58,0.00,,---,0.00,VWS V13.01,2013-01-05 00:56:00,
2013-01-04 20:01:00,35.1,21.8,30.35,West,275,10.0,11.0,58,0.00,,---,0.00,VWS V13.01,2013-01-05 01:01:00,
2013-01-04 20:06:00,35.1,21.8,30.34,SW,227,17.0,20.0,58,0.00,,---,0.00,VWS V13.01,2013-01-05 01:06:00,
2013-01-04 20:11:00,35.1,21.8,30.35,WSW,239,14.0,20.0,58,0.00,,---,0.00,VWS V13.01,2013-01-05 01:11:00,
2013-01-04 20:16:00,35.0,21.7,30.35,West,280,10.0,20.0,58,0.00,,---,0.00,VWS V13.01,2013-01-05 01:16:00,
2013-01-04 20:21:00,34.9,22.0,30.34,West,265,10.0,20.0,59,0.00,,---,0.00,VWS V13.01,2013-01-05 01:21:00,
2013-01-04 20:26:00,35.1,21.8,30.34,WNW,295,6.0,20.0,58,0.00,,---,0.00,VWS V13.01,2013-01-05 01:26:00,
2013-01-04 20:32:00,35.0,21.7,30.33,WNW,299,9.0,19.0,58,0.00,,---,0.00,VWS V13.01,2013-01-05 01:32:00,
2013-01-04 20:37:00,35.0,21.7,30.33,West,261,10.0,22.0,58,0.00,,---,0.00,VWS V13.01,2013-01-05 01:37:00,
2013-01-04 20:42:00,35.0,21.7,30.32,West,266,6.0,22.0,58,0.00,,---,0.00,VWS V13.01,2013-01-05 01:42:00,
2013-01-04 20:47:00,34.9,21.6,30.32,WSW,249,11.0,22.0,58,0.00,,---,0.00,VWS V13.01,2013-01-05 01:47:00,
2013-01-04 20:52:00,34.9,21.6,30.32,West,276,11.0,22.0,58,0.00,,---,0.00,VWS V13.01,2013-01-05 01:52:00,
2013-01-04 20:57:00,34.9,21.6,30.32,WSW,254,12.0,22.0,58,0.00,,---,0.00,VWS V13.01,2013-01-05 01:57:00,
2013-01-04 21:02:00,34.8,22.0,30.32,NW,306,7.0,18.0,59,0.00,,---,0.00,VWS V13.01,2013-01-05 02:02:00,
2013-01-04 21:07:00,34.8,22.0,30.32,SW,235,10.0,20.0,59,0.00,,---,0.00,VWS V13.01,2013-01-05 02:07:00,
2013-01-04 21:12:00,34.7,21.9,30.31,West,273,9.0,20.0,59,0.00,,---,0.00,VWS V13.01,2013-01-05 02:12:00,
2013-01-04 21:17:00,34.7,21.9,30.31,WSW,242,10.0,20.0,59,0.00,,---,0.00,VWS V13.01,2013-01-05 02:17:00,
2013-01-04 21:22:00,34.8,22.0,30.32,SSW,199,6.0,20.0,59,0.00,,---,0.00,VWS V13.01,2013-01-05 02:22:00,
2013-01-04 21:27:00,34.9,22.0,30.32,WSW,252,6.0,20.0,59,0.00,,---,0.00,VWS V13.01,2013-01-05 02:27:00,
2013-01-04 21:32:00,34.8,22.0,30.32,WSW,253,10.0,13.0,59,0.00,,---,0.00,VWS V13.01,2013-01-05 02:32:00,
2013-01-04 21:37:00,34.9,22.0,30.32,South,186,9.0,20.0,59,0.00,,---,0.00,VWS V13.01,2013-01-05 02:37:00,
2013-01-04 21:42:00,34.8,22.0,30.32,West,279,9.0,20.0,59,0.00,,---,0.00,VWS V13.01,2013-01-05 02:42:00,
2013-01-04 21:47:00,34.7,21.9,30.32,West,267,9.0,20.0,59,0.00,,---,0.00,VWS V13.01,2013-01-05 02:47:00,
2013-01-04 21:52:00,34.7,21.9,30.32,West,261,4.0,20.0,59,0.00,,---,0.00,VWS V13.01,2013-01-05 02:52:00,
2013-01-04 21:57:00,34.6,22.2,30.32,NNW,342,9.0,20.0,60,0.00,,---,0.00,VWS V13.01,2013-01-05 02:57:00,
2013-01-04 22:02:00,34.6,22.2,30.32,NW,321,7.0,13.0,60,0.00,,---,0.00,VWS V13.01,2013-01-05 03:02:00,
2013-01-04 22:07:00,34.6,22.2,30.32,WNW,303,11.0,20.0,60,0.00,,---,0.00,VWS V13.01,2013-01-05 03:07:00,
2013-01-04 22:12:00,34.7,21.9,30.32,NNW,340,11.0,20.0,59,0.00,,---,0.00,VWS V13.01,2013-01-05 03:12:00,
2013-01-04 22:17:00,35.0,22.1,30.32,NW,325,9.0,21.0,59,0.00,,---,0.00,VWS V13.01,2013-01-05 03:17:00,
2013-01-04 22:22:00,34.6,22.2,30.32,WNW,283,13.0,21.0,60,0.00,,---,0.00,VWS V13.01,2013-01-05 03:22:00,
2013-01-04 22:27:00,35.0,21.7,30.32,WNW,285,5.0,21.0,58,0.00,,---,0.00,VWS V13.01,2013-01-05 03:27:00,
2013-01-04 22:32:00,35.0,22.1,30.32,NW,311,4.0,13.0,59,0.00,,---,0.00,VWS V13.01,2013-01-05 03:32:00,
2013-01-04 22:37:00,35.1,21.8,30.33,WNW,283,10.0,15.0,58,0.00,,---,0.00,VWS V13.01,2013-01-05 03:37:00,
2013-01-04 22:42:00,35.2,21.9,30.32,SW,228,12.0,15.0,58,0.00,,---,0.00,VWS V13.01,2013-01-05 03:42:00,
2013-01-04 22:47:00,35.2,21.9,30.32,West,271,9.0,15.0,58,0.00,,---,0.00,VWS V13.01,2013-01-05 03:47:00,
2013-01-04 22:52:00,35.1,21.8,30.32,West,281,7.0,15.0,58,0.00,,---,0.00,VWS V13.01,2013-01-05 03:52:00,
2013-01-04 22:57:00,35.5,21.8,30.31,WSW,246,9.0,18.0,57,0.00,,---,0.00,VWS V13.01,2013-01-05 03:57:00,
2013-01-04 23:02:00,35.3,21.6,30.32,NW,309,12.0,15.0,57,0.00,,---,0.00,VWS V13.01,2013-01-05 04:02:00,
2013-01-04 23:07:00,35.4,21.7,30.32,WSW,244,6.0,17.0,57,0.00,,---,0.00,VWS V13.01,2013-01-05 04:07:00,
2013-01-04 23:12:00,35.3,21.6,30.32,West,264,9.0,17.0,57,0.00,,---,0.00,VWS V13.01,2013-01-05 04:12:00,
2013-01-04 23:17:00,35.3,21.6,30.33,WSW,256,10.0,17.0,57,0.00,,---,0.00,VWS V13.01,2013-01-05 04:17:00,
2013-01-04 23:22:00,35.2,21.5,30.32,West,267,12.0,17.0,57,0.00,,---,0.00,VWS V13.01,2013-01-05 04:22:00,
2013-01-04 23:27:00,35.3,21.6,30.33,WNW,288,3.0,18.0,57,0.00,,---,0.00,VWS V13.01,2013-01-05 04:27:00,
2013-01-04 23:32:00,35.1,21.4,30.33,WSW,254,8.0,14.0,57,0.00,,---,0.00,VWS V13.01,2013-01-05 04:32:00,
2013-01-04 23:37:00,34.9,21.6,30.33,SW,233,11.0,20.0,58,0.00,,---,0.00,VWS V13.01,2013-01-05 04:37:00,
2013-01-04 23:42:00,34.4,22.0,30.33,WSW,250,9.0,20.0,60,0.00,,---,0.00,VWS V13.01,2013-01-05 04:42:00,
2013-01-04 23:47:00,34.1,22.1,30.33,West,259,9.0,20.0,61,0.00,,---,0.00,VWS V13.01,2013-01-05 04:47:00,
2013-01-04 23:52:00,34.0,22.0,30.33,NW,309,8.0,20.0,61,0.00,,---,0.00,VWS V13.01,2013-01-05 04:52:00,
2013-01-04 23:57:00,33.9,22.3,30.33,West,259,10.0,20.0,62,0.00,,---,0.00,VWS V13.01,2013-01-05 04:57:00,